createdAt,value
2018-11-27T00:01:20.353Z,30.00
2018-11-27T00:06:23.988Z,26.83
2018-11-27T00:11:27.155Z,28.17
2018-11-27T00:16:30.345Z,28.40
2018-11-27T00:21:33.534Z,28.20
2018-11-27T00:26:36.723Z,29.37
2018-11-27T00:31:39.892Z,27.67
2018-11-27T00:36:43.086Z,28.93
2018-11-27T00:41:46.241Z,28.43
2018-11-27T00:46:49.440Z,30.23
2018-11-27T00:51:52.602Z,27.60
2018-11-27T00:56:55.745Z,27.43
2018-11-27T01:01:58.950Z,30.07
2018-11-27T01:07:02.137Z,29.03
2018-11-27T01:12:05.381Z,26.50
2018-11-27T01:17:08.576Z,29.87
2018-11-27T01:22:11.750Z,28.00
2018-11-27T01:27:14.971Z,27.33
2018-11-27T01:32:18.101Z,28.93
2018-11-27T01:37:21.220Z,28.57
2018-11-27T01:42:24.354Z,30.07
2018-11-27T01:47:27.525Z,29.50
2018-11-27T01:52:30.785Z,30.20
2018-11-27T01:57:34.133Z,25.90
2018-11-27T02:02:37.357Z,26.87
2018-11-27T02:07:40.549Z,27.50
2018-11-27T02:12:45.414Z,30.40
2018-11-27T02:17:48.603Z,26.67
2018-11-27T02:22:51.897Z,29.53
2018-11-27T02:27:55.260Z,30.97
2018-11-27T02:32:58.477Z,31.73
2018-11-27T02:38:01.691Z,27.37
2018-11-27T02:43:05.215Z,28.57
2018-11-27T02:48:08.393Z,29.17
2018-11-27T02:53:11.510Z,27.50
2018-11-27T02:58:14.677Z,27.07
2018-11-27T03:03:17.851Z,23.13
2018-11-27T03:08:21.008Z,27.67
2018-11-27T03:13:24.204Z,30.30
2018-11-27T03:18:27.336Z,27.87
2018-11-27T03:23:30.509Z,26.50
2018-11-27T03:28:33.712Z,23.40
2018-11-27T03:33:36.878Z,27.47
2018-11-27T03:38:40.094Z,27.77
2018-11-27T03:43:43.423Z,28.07
2018-11-27T03:48:46.585Z,24.07
2018-11-27T03:53:49.765Z,25.30
2018-11-27T03:58:52.937Z,28.07
2018-11-27T04:03:56.176Z,24.37
2018-11-27T04:08:59.342Z,22.40
2018-11-27T04:14:02.561Z,19.33
2018-11-27T04:19:06.001Z,21.60
2018-11-27T04:24:09.157Z,22.03
2018-11-27T04:29:12.325Z,20.57
2018-11-27T04:34:15.494Z,23.63
2018-11-27T04:39:18.703Z,22.70
2018-11-27T04:44:21.858Z,20.47
2018-11-27T04:49:25.131Z,20.63
2018-11-27T04:54:28.431Z,20.90
2018-11-27T04:59:31.865Z,19.13
2018-11-27T05:04:35.117Z,19.80
2018-11-27T05:09:38.545Z,21.07
2018-11-27T05:14:41.770Z,19.60
2018-11-27T05:19:44.933Z,22.53
2018-11-27T05:24:48.120Z,21.53
2018-11-27T05:29:51.334Z,21.80
2018-11-27T05:34:54.518Z,21.50
2018-11-27T05:39:57.724Z,20.97
2018-11-27T05:45:00.884Z,21.07
2018-11-27T05:50:05.606Z,20.57
2018-11-27T05:55:10.389Z,20.33
2018-11-27T06:00:22.300Z,21.07
2018-11-27T06:05:25.727Z,21.13
2018-11-27T06:10:28.977Z,21.13
2018-11-27T06:15:32.690Z,22.57
2018-11-27T06:20:35.425Z,21.37
2018-11-27T06:25:38.650Z,21.50
2018-11-27T06:30:41.902Z,21.20
2018-11-27T06:35:45.101Z,20.87
2018-11-27T06:40:48.340Z,18.13
2018-11-27T06:45:51.537Z,20.23
2018-11-27T06:50:54.730Z,20.43
2018-11-27T06:55:57.925Z,20.40
2018-11-27T07:01:01.092Z,18.40
2018-11-27T07:06:04.292Z,17.77
2018-11-27T07:11:07.506Z,18.87
2018-11-27T07:16:10.730Z,20.43
2018-11-27T07:21:13.941Z,16.73
2018-11-27T07:26:17.413Z,20.10
2018-11-27T07:31:20.580Z,19.73
2018-11-27T07:36:23.753Z,19.27
2018-11-27T07:41:26.909Z,20.30
2018-11-27T07:46:30.143Z,18.90
2018-11-27T07:51:33.355Z,19.27
2018-11-27T07:56:36.561Z,18.17
2018-11-27T08:01:39.719Z,17.47
2018-11-27T08:06:42.877Z,15.47
2018-11-27T08:11:46.040Z,17.03
2018-11-27T08:16:49.276Z,17.50
2018-11-27T08:21:52.477Z,18.07
2018-11-27T08:26:59.571Z,20.03
2018-11-27T08:32:02.727Z,19.03
2018-11-27T08:37:06.121Z,21.47
2018-11-27T08:42:09.297Z,21.07
2018-11-27T08:47:12.501Z,21.83
2018-11-27T08:52:15.634Z,24.70
2018-11-27T08:57:18.789Z,19.27
2018-11-27T09:02:21.977Z,18.67
2018-11-27T09:07:25.149Z,20.37
2018-11-27T09:12:28.297Z,19.67
2018-11-27T09:17:31.488Z,22.43
2018-11-27T09:22:34.643Z,21.63
2018-11-27T09:27:37.918Z,20.30
2018-11-27T09:32:41.123Z,20.40
2018-11-27T09:37:44.373Z,20.77
2018-11-27T09:42:47.592Z,18.50
2018-11-27T09:47:53.577Z,21.03
2018-11-27T09:52:56.786Z,27.23
2018-11-27T09:57:59.954Z,23.97
2018-11-27T10:03:06.157Z,21.13
2018-11-27T10:08:09.641Z,20.53
2018-11-27T10:13:12.877Z,21.47
2018-11-27T10:18:16.068Z,22.00
2018-11-27T10:23:19.277Z,20.13
2018-11-27T10:28:22.511Z,20.87
2018-11-27T10:33:25.716Z,18.27
2018-11-27T10:38:28.957Z,20.30
2018-11-27T10:43:32.207Z,21.37
2018-11-27T10:48:35.394Z,22.43
2018-11-27T10:53:45.296Z,22.47
2018-11-27T10:58:48.476Z,21.20
2018-11-27T11:03:51.634Z,22.67
2018-11-27T11:08:54.833Z,22.33
2018-11-27T11:13:58.097Z,23.73
2018-11-27T11:19:01.392Z,23.97
2018-11-27T11:24:04.877Z,22.37
2018-11-27T11:29:08.094Z,26.40
2018-11-27T11:41:46.270Z,23.93
2018-11-27T11:46:49.534Z,23.60
2018-11-27T11:51:52.736Z,24.00
2018-11-27T11:56:55.911Z,23.10
2018-11-27T12:01:59.185Z,24.63
2018-11-27T12:07:02.386Z,24.33
2018-11-27T12:12:06.224Z,23.53
2018-11-27T12:17:09.483Z,22.67
2018-11-27T12:22:12.690Z,24.40
2018-11-27T12:27:15.917Z,22.47
2018-11-27T12:32:19.123Z,22.83
2018-11-27T12:37:22.364Z,23.90
2018-11-27T12:42:25.581Z,21.27
2018-11-27T12:47:28.842Z,25.37
2018-11-27T12:52:32.075Z,27.20
2018-11-27T12:57:35.319Z,25.63
2018-11-27T13:02:38.570Z,24.83
2018-11-27T13:07:41.998Z,27.43
2018-11-27T13:12:46.264Z,23.93
2018-11-27T13:17:51.058Z,22.20
2018-11-27T13:22:54.310Z,23.23
2018-11-27T13:27:57.545Z,23.23
2018-11-27T13:34:11.029Z,23.67
2018-11-27T13:39:31.243Z,23.80
2018-11-27T13:44:34.479Z,25.40
2018-11-27T13:49:37.784Z,23.80
2018-11-27T13:54:40.999Z,25.30
2018-11-27T13:59:44.219Z,26.87
2018-11-27T14:04:47.426Z,26.83
2018-11-27T14:09:50.726Z,23.47
2018-11-27T14:14:54.048Z,25.50
2018-11-27T14:19:57.302Z,26.37
2018-11-27T14:25:00.532Z,27.37
2018-11-27T14:30:09.207Z,24.30
2018-11-27T14:35:13.634Z,28.50
2018-11-27T14:40:20.311Z,26.27
2018-11-27T14:45:25.055Z,27.03
2018-11-27T14:50:28.293Z,27.23
2018-11-27T14:55:33.287Z,27.13
2018-11-27T15:00:36.562Z,24.30
2018-11-27T15:05:40.856Z,24.40
2018-11-27T15:10:44.098Z,24.00
2018-11-27T15:15:47.339Z,22.70
2018-11-27T15:20:50.607Z,22.53
2018-11-27T15:25:53.877Z,25.23
2018-11-27T15:30:57.110Z,28.93
2018-11-27T15:36:00.328Z,28.20
2018-11-27T15:41:03.658Z,25.97
2018-11-27T15:46:06.912Z,25.43
2018-11-27T15:51:10.153Z,26.27
2018-11-27T15:56:13.385Z,25.90
2018-11-27T16:01:16.638Z,25.73
2018-11-27T16:06:19.979Z,27.17
2018-11-27T16:11:23.219Z,22.30
2018-11-27T16:16:26.525Z,25.70
2018-11-27T16:21:29.786Z,24.83
2018-11-27T16:26:33.028Z,25.80
2018-11-27T16:31:36.326Z,25.90
2018-11-27T16:36:39.570Z,24.20
2018-11-27T16:41:49.590Z,27.50
2018-11-27T16:46:52.974Z,24.03
2018-11-27T16:51:56.261Z,24.60
2018-11-27T16:56:59.515Z,23.13
2018-11-27T17:02:02.784Z,26.03
2018-11-27T17:07:06.448Z,26.63
2018-11-27T17:12:09.681Z,24.80
2018-11-27T17:17:12.976Z,24.93
2018-11-27T17:22:16.221Z,22.97
2018-11-27T17:27:20.554Z,22.57
2018-11-27T17:32:23.826Z,23.97
2018-11-27T17:37:27.069Z,22.13
2018-11-27T17:42:30.333Z,27.47
2018-11-27T17:47:33.576Z,27.67
2018-11-27T17:52:36.937Z,27.40
2018-11-27T17:57:40.219Z,27.27
2018-11-27T18:02:45.808Z,25.80
2018-11-27T18:07:49.138Z,29.17
2018-11-27T18:12:52.370Z,24.40
2018-11-27T18:17:55.732Z,21.67
2018-11-27T18:22:59.032Z,23.20
2018-11-27T18:28:02.319Z,27.07
2018-11-27T18:33:06.017Z,27.93
2018-11-27T18:38:09.360Z,32.73
2018-11-27T18:43:12.668Z,31.23
2018-11-27T18:48:15.966Z,27.07
2018-11-27T18:53:19.385Z,28.53
2018-11-27T18:58:22.704Z,29.57
2018-11-27T19:03:26.006Z,28.17
2018-11-27T19:08:29.389Z,30.97
2018-11-27T19:13:32.733Z,27.47
2018-11-27T19:18:36.583Z,28.13
2018-11-27T19:23:39.894Z,24.67
2018-11-27T19:28:43.122Z,27.83
2018-11-27T19:33:47.435Z,28.73
2018-11-27T19:38:50.700Z,24.53
2018-11-27T19:43:54.013Z,25.27
2018-11-27T19:48:57.523Z,24.83
2018-11-27T19:54:00.841Z,23.57
2018-11-27T19:59:04.960Z,23.70
2018-11-27T20:04:07.691Z,20.67
2018-11-27T20:09:11.084Z,26.00
2018-11-27T20:14:14.385Z,26.17
2018-11-27T20:19:17.714Z,25.33
2018-11-27T20:24:20.931Z,24.73
2018-11-27T20:29:24.254Z,23.83
2018-11-27T20:34:27.520Z,21.73
2018-11-27T20:39:30.915Z,18.40
2018-11-27T20:44:34.226Z,17.50
2018-11-27T20:49:37.514Z,26.73
2018-11-27T20:54:40.787Z,22.07
2018-11-27T20:59:44.082Z,20.63
2018-11-27T21:04:47.400Z,24.97
2018-11-27T21:09:57.474Z,23.20
2018-11-27T21:15:00.819Z,19.77
2018-11-27T21:20:04.955Z,23.47
2018-11-27T21:25:23.474Z,24.13
2018-11-27T21:30:26.784Z,25.00
2018-11-27T21:35:30.118Z,28.23
2018-11-27T21:40:34.116Z,27.13
2018-11-27T21:45:37.663Z,22.97
2018-11-27T21:50:42.009Z,23.60
2018-11-27T21:55:45.317Z,19.13
2018-11-27T22:00:48.559Z,20.27
2018-11-27T22:05:51.806Z,20.43
2018-11-27T22:10:55.029Z,23.93
2018-11-27T22:15:58.273Z,24.50
2018-11-27T22:21:01.484Z,22.40
2018-11-27T22:26:04.748Z,20.40
2018-11-27T22:31:08.005Z,22.40
2018-11-27T22:36:11.250Z,19.90
2018-11-27T22:41:14.494Z,22.33
2018-11-27T22:46:17.717Z,19.43
2018-11-27T22:51:20.870Z,22.67
2018-11-27T22:56:24.055Z,22.10
2018-11-27T23:01:27.285Z,20.60
2018-11-27T23:06:30.489Z,18.23
2018-11-27T23:11:33.752Z,20.27
2018-11-27T23:16:37.029Z,23.00
2018-11-27T23:21:40.554Z,20.33
2018-11-27T23:26:43.788Z,24.80
2018-11-27T23:31:47.235Z,23.23
2018-11-27T23:36:50.396Z,24.13
2018-11-27T23:41:53.718Z,22.70
2018-11-27T23:46:56.958Z,23.40
2018-11-27T23:52:00.145Z,20.70
2018-11-27T23:57:03.332Z,18.90
